Nearby METAR Reports

 

KMHT - Manchester, New Hampshire, USA
Distance from station: W 16mi, 26km
Updated: Fri, 24-Nov-2017 8:53am EST
Few Clouds
Few Clouds
 Wind from SSW
Wind: SSW 5 mph , 7 km/h
Temperature: 34°F , 1°C
Wind Chill: 29°F , -2°C
Dew Point: 25°F , -4°C
Humidity: 70%
Barometer: 29.99 inHg , 1015.6 hPa
Clouds: Few Clouds
Visibility: 10 miles , 16 km
Cloud details: Few Clouds 10000 ft
2017/11/24 13:53 KMHT 241353Z 20004KT 10SM FEW100 01/M04 A2999 RMK AO2 SLP174 T00061044
KPSM - Portsmouth/Pease, New Hampshire, USA
Distance from station: ENE 17mi, 27km
Updated: Fri, 24-Nov-2017 8:56am EST
Few Clouds
Few Clouds
 Wind from SW
Wind: SW 8 mph , 13 km/h
Temperature: 37°F , 3°C
Wind Chill: 31°F , -1°C
Dew Point: 25°F , -4°C
Humidity: 60%
Barometer: 29.99 inHg , 1015.6 hPa
Clouds: Few Clouds
Visibility: 10 miles , 16 km
Cloud details: Few Clouds 7000 ft
Few Clouds 25000 ft
2017/11/24 13:56 KPSM 241356Z 23007KT 10SM FEW070 FEW250 03/M04 A2999 RMK AO2A SLP159 T00271045 CHINO RWY16 $
 
KASH - Nashua/Boire Fld, New Hampshire, USA
Distance from station: WSW 24mi, 38km
Updated: Fri, 24-Nov-2017 8:56am EST
Clear
Clear
 Wind from ESE
Wind: ESE 3 mph , 6 km/h
Temperature: 36°F , 2°C
Dew Point: 25°F , -4°C
Humidity: 65%
Barometer: 30.01 inHg , 1016.3 hPa
Clouds: Clear
Visibility: 10 miles , 16 km
2017/11/24 13:56 KASH 241356Z 12003KT 10SM CLR 02/M04 A3001 RMK AO2 SLP174 T00171039
KDAW - Rochester, New Hampshire, USA
Distance from station: NNE 24mi, 39km
Updated: Fri, 24-Nov-2017 8:51am EST
Clear
Clear
 Wind from calm
Wind: Calm
Temperature: 36°F , 2°C
Dew Point: 27°F , -3°C
Humidity: 70%
Barometer: 29.98 inHg , 1015.2 hPa
Clouds: Clear
Visibility: 10 miles , 16 km
2017/11/24 13:51 KDAW 241351Z AUTO 00000KT 10SM CLR 02/M03 A2998 RMK AO2 SLP152 T00171033